CheckWX is a tool to help pilots better visualize weather data.  It is not intended as a substitute for an official pre-flight weather briefing.

03:38:46 UTC

OSLK METAR
Bassel Al-Assad International Airport
Latakia, Syria
Current

39 mins ago

OSLK 020300Z 21010KT 9999 FEW026TCU SCT030 16/12 Q1012
Observed
Apr-2 @ 03:00 UTC
Wind
  • 210° at 10 KTS
Visibility
10,000+ meters
Flight Rules
VFR
Cloud Levels
  • Few at 2,600' AGL
  • Scattered at 3,000' AGL
Temperature
16°C / 61°F
Dewpoint
12°C / 54°F
Humidity
77%
Altimeter
29.88" Hg
Pressure
1011.92 hPa
Previous

2 hours ago

OSLK 020200Z 21014G24KT 9999 FEW026TCU SCT030 16/13 Q1011
Observed
Apr-2 @ 02:00 UTC
Wind
  • 210° at 14 KTS
  • Gusting to 24 KTS
Visibility
10,000+ meters
Flight Rules
VFR
Cloud Levels
  • Few at 2,600' AGL
  • Scattered at 3,000' AGL
Temperature
16°C / 61°F
Dewpoint
13°C / 55°F
Humidity
83%
Altimeter
29.85" Hg
Pressure
1010.92 hPa
Previous

3 hours ago

OSLK 020100Z 22010G20KT 8000 FEW026TCU SCT030 SCT100 16/13 Q1011
Observed
Apr-2 @ 01:00 UTC
Wind
  • 220° at 10 KTS
  • Gusting to 20 KTS
Visibility
7998 meters
Flight Rules
MVFR
Cloud Levels
  • Few at 2,600' AGL
  • Scattered at 3,000' AGL
  • Scattered at 10,000' AGL
Temperature
16°C / 61°F
Dewpoint
13°C / 55°F
Humidity
83%
Altimeter
29.85" Hg
Pressure
1010.92 hPa